• Join FlightAware (Why Join?)
  • Login
  • US Flag 
02:03PM EST


 

Airport Tracker/Info


-or-


 

Live Flight TrackerFlight Track Log ✈ EJM826 ✈ 29-Sep-2013 ✈ KHOU - KSFO

Flight Track Log - Related Links

Times and Time Zones

All times are in EDT time to prevent confusion due to time zone crossing. See the EJM826 flight status page for this flight to view local times or setup timezone preferences in your user account.

Time Position Orientation Groundspeed Altitude Reporting Facility
EDT Latitude Longitude Course Direction KTS MPH feet Rate Location/Type
09:49AM 29.6308 -95.2633 220° Southwest 165 190 500  Level Houston Center
09:50AM 29.5886 -95.3044 220° Southwest 198 228 3,000 1,980 Climbing Houston Center
09:50AM 29.5831 -95.3136 235° Southwest 198 228 3,500 2,400 Climbing Houston Center
09:51AM 29.5597 -95.3558 238° Southwest 210 242 5,200 2,220 Climbing Houston Center
09:51AM 29.5514 -95.3708 237° Southwest 208 239 5,800 1,740 Climbing Houston Center
09:52AM 29.5428 -95.4228 259° West 261 300 7,000 1,620 Climbing Houston Center
09:52AM 29.5511 -95.4444 294° West 256 295 7,500 1,740 Climbing Houston Center
09:53AM 29.6036 -95.4925 321° Northwest 303 349 9,000 1,740 Climbing Houston Center
09:53AM 29.6153 -95.5014 326° Northwest 292 336 9,300 1,860 Climbing Houston Center
09:54AM 29.6756 -95.5464 327° Northwest 306 352 10,900 1,920 Climbing Houston Center
09:54AM 29.6869 -95.5553 326° Northwest 305 351 11,300 1,560 Climbing Houston Center
09:55AM 29.7456 -95.6281 313° West 317 365 13,000 1,800 Climbing Houston Center
09:56AM 29.7744 -95.7217 290° West 314 361 15,000 1,620 Climbing Houston Center
09:58AM 29.7975 -95.8203 285° West 319 367 16,300 1,500 Climbing Houston Center
09:59AM 29.8264 -95.9419 285° West 328 377 18,100 1,440 Climbing Houston Center
10:00AM 29.8525 -96.0514 285° West 348 400 19,300 1,080 Climbing Houston Center
10:01AM 29.8783 -96.1586 286° West 350 403 20,400 1,080 Climbing Houston Center
10:02AM 29.9042 -96.2683 285° West 355 409 21,500 840 Climbing Houston Center
10:03AM 29.9300 -96.3778 285° West 357 411 22,200 780 Climbing Houston Center
10:04AM 29.9556 -96.4900 285° West 361 415 23,100 780 Climbing Houston Center
10:05AM 29.9819 -96.6044 285° West 368 423 23,800 660 Climbing Houston Center
10:06AM 30.0086 -96.7183 285° West 371 427 24,500 960 Climbing Houston Center
10:07AM 30.0403 -96.8569 285° West 374 430 25,800 960 Climbing Houston Center
10:08AM 30.0664 -96.9731 285° West 375 432 26,500 600 Climbing Houston Center
10:09AM 30.0933 -97.0917 285° West 382 440 27,100 720 Climbing Houston Center
10:10AM 30.1200 -97.2136 284° West 387 445 28,000 780 Climbing Houston Center
10:11AM 30.1486 -97.3367 285° West 391 450 28,700 720 Climbing Houston Center
10:12AM 30.1769 -97.4619 285° West 396 456 29,500 720 Climbing Houston Center
10:13AM 30.2044 -97.5858 284° West 395 455 30,200 660 Climbing Houston Center
10:14AM 30.2317 -97.7136 284° West 402 463 30,900 660 Climbing Houston Center
10:15AM 30.2606 -97.8394 285° West 401 461 31,600 600 Climbing Houston Center
10:16AM 30.2903 -97.9750 284° West 398 458 32,200 600 Climbing Houston Center
10:17AM 30.3200 -98.1106 284° West 408 470 32,900 540 Climbing Houston Center
10:18AM 30.3439 -98.2233 284° West 407 468 33,400 660 Climbing Houston Center
10:19AM 30.3728 -98.3553 284° West 414 476 34,300 780 Climbing Houston Center
10:20AM 30.3994 -98.4825 284° West 407 468 35,100 840 Climbing Houston Center
10:21AM 30.4325 -98.6306 285° West 404 465 36,100 900 Climbing Houston Center
10:22AM 30.4589 -98.7581 284° West 402 463 37,000 840 Climbing Houston Center
10:23AM 30.4850 -98.8833 284° West 398 458 37,900 900 Climbing Houston Center
10:24AM 30.5122 -99.0081 284° West 397 457 38,900 960 Climbing Houston Center
10:25AM 30.5403 -99.1353 284° West 387 445 39,900 480 Climbing Houston Center
10:26AM 30.5650 -99.2564 283° West 386 444 39,900  Level Houston Center
10:27AM 30.5917 -99.3831 284° West 404 465 40,000  Climbing Houston Center
10:28AM 30.6189 -99.5133 284° West 416 479 40,000  Level Houston Center
10:29AM 30.6461 -99.6481 283° West 428 493 40,000  Level Houston Center
10:30AM 30.6722 -99.7814 283° West 426 490 40,000  Level Houston Center
10:31AM 30.6997 -99.9167 283° West 436 502 40,000  Level Houston Center
10:32AM 30.7331 -100.0783 284° West 448 516 40,000  Level Houston Center
10:33AM 30.7619 -100.2203 283° West 467 537 40,000  Level Houston Center
10:34AM 30.7889 -100.3553 283° West 443 510 40,000 -60 Level Houston Center
10:35AM 30.8147 -100.4883 283° West 444 511 39,900  Descending Houston Center
10:36AM 30.8425 -100.6294 283° West 454 522 40,000  Climbing Houston Center
10:37AM 30.8617 -100.7642 279° West 443 510 40,000  Level Houston Center
10:38AM 30.8964 -100.9047 286° West 448 516 40,000  Level Houston Center
10:39AM 30.9236 -101.0397 283° West 436 502 40,000  Level Houston Center
10:40AM 30.9536 -101.2042 282° West 434 499 40,000  Level Houston Center
10:42AM 30.9792 -101.3356 283° West 424 488 40,000  Level Houston Center
10:43AM 31.0028 -101.4694 282° West 420 483 40,000  Level Houston Center
10:44AM 31.0289 -101.6053 283° West 425 489 40,000  Level Houston Center
10:45AM 31.0539 -101.7422 282° West 429 494 40,000  Level Houston Center
10:46AM 31.0792 -101.8775 282° West 428 493 40,000 -60 Level Houston Center
10:47AM 31.1042 -102.0142 282° West 429 494 39,900  Descending Houston Center
10:48AM 31.1289 -102.1536 282° West 441 507 40,000  Climbing Houston Center
10:49AM 31.1517 -102.2942 281° West 456 525 40,000  Level Houston Center
10:50AM 31.1839 -102.4636 283° West 437 503 40,000  Level Houston Center
10:51AM 31.2097 -102.5992 283° West 424 488 40,000  Level Houston Center
10:52AM 31.2342 -102.7336 282° West 422 486 40,000  Level Houston Center
10:53AM 31.2586 -102.8675 282° West 421 484 40,000 -60 Level Houston Center
10:54AM 31.2825 -103.0019 282° West 423 487 39,900  Descending Houston Center
10:55AM 31.3075 -103.1353 282° West 421 484 40,000  Climbing Houston Center
10:56AM 31.3300 -103.2689 281° West 420 483 40,000  Level Houston Center
10:57AM 31.3542 -103.4042 282° West 424 488 40,000  Level Houston Center
10:58AM 31.3878 -103.6164 281° West 419 482 40,000  Level Albuquerque Center
10:59AM 31.4117 -103.7506 282° West 419 482 40,000  Level Albuquerque Center
11:00AM 31.4361 -103.8897 282° West 419 482 40,000  Level Albuquerque Center
11:01AM 31.4572 -104.0217 281° West 415 478 40,000  Level Albuquerque Center
11:02AM 31.4792 -104.1539 281° West 415 478 40,000  Level Albuquerque Center
11:03AM 31.5114 -104.2836 286° West 415 478 40,000  Level Albuquerque Center
11:05AM 31.5469 -104.4131 288° West 418 481 40,000  Level Albuquerque Center
11:06AM 31.5806 -104.5425 287° West 418 481 40,000  Level Albuquerque Center
11:07AM 31.6156 -104.6714 288° West 417 480 40,000  Level Albuquerque Center
11:08AM 31.6556 -104.8264 287° West 417 480 40,000  Level Albuquerque Center
11:09AM 31.6892 -104.9556 287° West 416 479 40,000  Level Albuquerque Center
11:10AM 31.7225 -105.0844 287° West 416 479 40,000  Level Albuquerque Center
11:11AM 31.7569 -105.2172 287° West 420 483 40,000  Level Albuquerque Center
11:12AM 31.7906 -105.3461 287° West 419 482 40,000  Level Albuquerque Center
11:13AM 31.8219 -105.4750 286° West 417 480 40,000  Level Albuquerque Center
11:14AM 31.8622 -105.6306 287° West 416 479 40,000  Level Albuquerque Center
11:15AM 31.8947 -105.7594 287° West 415 478 40,000  Level Albuquerque Center
11:16AM 31.9281 -105.8894 287° West 417 480 40,000  Level Albuquerque Center
11:17AM 31.9622 -106.0269 286° West 418 481 40,000  Level Albuquerque Center
11:18AM 31.9956 -106.1567 287° West 415 478 40,000  Level Albuquerque Center
11:19AM 32.0286 -106.2867 287° West 415 478 40,000  Level Albuquerque Center
11:20AM 32.0608 -106.4186 286° West 418 481 40,000  Level Albuquerque Center
11:21AM 32.0925 -106.5483 286° West 413 475 40,000 -60 Level Albuquerque Center
11:22AM 32.1308 -106.7047 286° West 412 474 39,900  Descending Albuquerque Center
11:23AM 32.1625 -106.8333 286° West 409 471 40,000  Climbing Albuquerque Center
11:24AM 32.1961 -106.9706 286° West 411 473 40,000  Level Albuquerque Center
11:25AM 32.2297 -107.1092 286° West 409 471 40,000  Level Albuquerque Center
11:26AM 32.2567 -107.2225 286° West 411 473 40,000  Level Albuquerque Center
11:27AM 32.2847 -107.3528 284° West 411 473 40,000  Level Albuquerque Center
11:28AM 32.3156 -107.4819 286° West 410 472 40,000  Level Albuquerque Center
11:29AM 32.3472 -107.6172 286° West 408 470 40,000  Level Albuquerque Center
11:30AM 32.3783 -107.7464 286° West 407 468 40,000  Level Albuquerque Center
11:31AM 32.4142 -107.9011 285° West 407 468 40,000  Level Albuquerque Center
11:32AM 32.4422 -108.0239 285° West 408 470 40,000  Level Albuquerque Center
11:33AM 32.4722 -108.1531 285° West 408 470 40,000  Level Albuquerque Center
11:34AM 32.5022 -108.2819 285° West 407 468 40,000  Level Albuquerque Center
11:35AM 32.5322 -108.4111 285° West 407 468 40,000  Level Albuquerque Center
11:36AM 32.5672 -108.5672 285° West 408 470 40,000  Level Albuquerque Center
11:37AM 32.5964 -108.6967 285° West 406 467 40,000  Level Albuquerque Center
11:39AM 32.6253 -108.8258 285° West 405 466 40,000  Level Albuquerque Center
11:40AM 32.6544 -108.9556 285° West 404 465 40,000  Level Albuquerque Center
11:41AM 32.6825 -109.0858 284° West 404 465 40,000  Level Albuquerque Center
11:42AM 32.7114 -109.2153 285° West 404 465 40,000  Level Albuquerque Center
11:43AM 32.7417 -109.3444 286° West 404 465 40,000  Level Albuquerque Center
11:44AM 32.7703 -109.4744 285° West 405 466 40,000  Level Albuquerque Center
11:45AM 32.8044 -109.6292 285° West 403 464 40,000  Level Albuquerque Center
11:46AM 32.8333 -109.7578 285° West 403 464 40,000  Level Albuquerque Center
11:47AM 32.8606 -109.8861 284° West 401 461 40,000  Level Albuquerque Center
11:48AM 32.8892 -110.0144 285° West 401 461 40,000  Level Albuquerque Center
11:49AM 32.9158 -110.1422 284° West 400 460 40,000  Level Albuquerque Center
11:50AM 32.9431 -110.2697 284° West 399 459 40,000  Level Albuquerque Center
11:51AM 32.9700 -110.3981 284° West 399 459 40,000  Level Albuquerque Center
11:52AM 33.0019 -110.5506 284° West 398 458 40,000  Level Albuquerque Center
11:53AM 33.0286 -110.6792 284° West 399 459 40,000  Level Albuquerque Center
11:54AM 33.0567 -110.8150 284° West 398 458 40,000  Level Albuquerque Center
11:55AM 33.0831 -110.9431 284° West 398 458 40,000  Level Albuquerque Center
11:56AM 33.1106 -111.0681 285° West 392 451 40,000  Level Albuquerque Center
11:57AM 33.1356 -111.1961 283° West 395 455 40,000  Level Albuquerque Center
11:58AM 33.1614 -111.3236 284° West 396 456 40,000  Level Albuquerque Center
11:59AM 33.1869 -111.4508 284° West 394 453 40,000  Level Albuquerque Center
12:00PM 33.2172 -111.6039 283° West 395 455 40,000  Level Albuquerque Center
12:01PM 33.2431 -111.7328 284° West 397 457 40,000  Level Albuquerque Center
12:02PM 33.2683 -111.8603 283° West 396 456 40,000  Level Albuquerque Center
12:03PM 33.2928 -111.9883 283° West 395 455 40,000  Level Albuquerque Center
12:04PM 33.3181 -112.1164 283° West 395 455 40,000  Level Albuquerque Center
12:05PM 33.3425 -112.2444 283° West 394 453 40,000  Level Albuquerque Center
12:06PM 33.3667 -112.3736 283° West 396 456 40,000  Level Albuquerque Center
12:07PM 33.3967 -112.5267 283° West 394 453 40,000  Level Albuquerque Center
12:08PM 33.4178 -112.6367 283° West 393 452 40,000  Level Albuquerque Center
12:09PM 33.4472 -112.7894 283° West 395 455 40,000  Level Albuquerque Center
12:11PM 33.4717 -112.9169 283° West 394 453 40,000  Level Albuquerque Center
12:12PM 33.4967 -113.0450 283° West 396 456 40,000  Level Albuquerque Center
12:13PM 33.5206 -113.1733 283° West 396 456 40,000  Level Albuquerque Center
12:14PM 33.5442 -113.3008 283° West 396 456 40,000  Level Albuquerque Center
12:15PM 33.5694 -113.4275 284° West 394 453 40,000  Level Albuquerque Center
12:16PM 33.5975 -113.5817 282° West 394 453 40,000  Level Albuquerque Center
12:17PM 33.6203 -113.7067 282° West 395 455 40,000  Level Albuquerque Center
12:18PM 33.6442 -113.8342 283° West 393 452 40,000  Level Albuquerque Center
12:19PM 33.6669 -113.9631 282° West 394 453 40,000  Level Albuquerque Center
12:20PM 33.6925 -114.0914 283° West 396 456 40,000  Level Albuquerque Center
12:21PM 33.7147 -114.2225 282° West 395 455 40,000  Level Albuquerque Center
12:22PM 33.7500 -114.3756 286° West 397 457 40,000  Level Albuquerque Center
12:23PM 33.7756 -114.4733 287° West 397 457 40,000  Level Los Angeles Center
12:24PM 33.8081 -114.6000 287° West 397 457 40,000  Level Los Angeles Center
12:25PM 33.8408 -114.7294 287° West 402 463 40,000  Level Los Angeles Center
12:26PM 33.8739 -114.8581 287° West 403 464 40,000  Level Los Angeles Center
12:27PM 33.9122 -115.0131 287° West 404 465 40,000  Level Los Angeles Center
12:28PM 33.9458 -115.1428 287° West 406 467 40,000  Level Los Angeles Center
12:29PM 33.9783 -115.2731 287° West 407 468 40,000  Level Los Angeles Center
12:30PM 34.0106 -115.4039 287° West 409 471 40,000  Level Los Angeles Center
12:31PM 34.0417 -115.5356 286° West 409 471 40,000  Level Los Angeles Center
12:32PM 34.0817 -115.6967 287° West 418 481 40,000  Level Los Angeles Center
12:33PM 34.1142 -115.8314 286° West 419 482 40,000  Level Los Angeles Center
12:34PM 34.1475 -115.9683 286° West 420 483 40,000  Level Los Angeles Center
12:35PM 34.1803 -116.1050 286° West 423 487 40,000  Level Los Angeles Center
12:36PM 34.2139 -116.2425 287° West 427 491 40,000  Level Los Angeles Center
12:37PM 34.2458 -116.3806 286° West 426 490 40,000  Level Los Angeles Center
12:38PM 34.2783 -116.5183 286° West 425 489 40,000  Level Los Angeles Center
12:39PM 34.3175 -116.6817 286° West 423 487 40,000  Level Los Angeles Center
12:40PM 34.3503 -116.8211 286° West 429 494 40,000  Level Los Angeles Center
12:41PM 34.3831 -116.9603 286° West 429 494 40,000  Level Los Angeles Center
12:42PM 34.4144 -117.0997 285° West 429 494 40,000  Level Los Angeles Center
12:43PM 34.4472 -117.2394 286° West 432 497 40,000  Level Los Angeles Center
12:44PM 34.4789 -117.3831 285° West 437 503 40,000  Level Los Angeles Center
12:45PM 34.5119 -117.5267 286° West 441 507 40,000  Level Los Angeles Center
12:46PM 34.5497 -117.7006 285° West 447 514 40,000  Level Los Angeles Center
12:48PM 34.5831 -117.8447 286° West 444 511 40,000  Level Los Angeles Center
12:49PM 34.6167 -117.9919 286° West 450 518 40,000  Level Los Angeles Center
12:50PM 34.6742 -118.1261 298° West 449 517 40,000  Level Los Angeles Center
12:51PM 34.7569 -118.2436 311° West 452 520 40,000  Level Los Angeles Center
12:52PM 34.8378 -118.3628 310° West 454 522 40,000  Level Los Angeles Center
12:53PM 34.9331 -118.4961 311° West 453 521 40,000 -60 Level Los Angeles Center
12:54PM 35.0136 -118.6133 310° West 451 519 39,900  Descending Los Angeles Center
12:55PM 35.1100 -118.7142 319° Northwest 458 527 40,000  Climbing Los Angeles Center
12:56PM 35.2047 -118.8189 318° Northwest 457 526 40,000 -60 Level Los Angeles Center
12:57PM 35.2836 -118.9753 302° West 457 526 39,900  Descending Los Angeles Center
12:58PM 35.3322 -119.1156 293° West 449 517 40,000  Climbing Los Angeles Center
12:59PM 35.3817 -119.2553 293° West 448 516 40,000  Level Los Angeles Center
01:00PM 35.4283 -119.3956 292° West 447 514 40,000  Level Los Angeles Center
01:01PM 35.4800 -119.5389 294° West 454 522 40,000  Level Los Angeles Center
01:02PM 35.5283 -119.6794 293° West 446 513 40,000  Level Los Angeles Center
01:03PM 35.5836 -119.8472 292° West 444 511 40,000  Level Los Angeles Center
01:04PM 35.6322 -119.9875 293° West 448 516 40,000  Level Los Angeles Center
01:05PM 35.6614 -120.0719 293° West 451 519 40,000  Level Oakland Center
01:06PM 35.7092 -120.2108 293° West 449 517 40,000  Level Oakland Center
01:07PM 35.7647 -120.3789 292° West 448 516 40,000  Level Oakland Center
01:08PM 35.8117 -120.5183 293° West 447 514 40,000  Level Oakland Center
01:09PM 35.8822 -120.6414 305° West 445 512 40,000  Level Oakland Center
01:10PM 35.9606 -120.7594 309° West 446 513 40,000  Level Oakland Center
01:11PM 36.0389 -120.8797 309° West 449 517 40,000 -60 Level Oakland Center
01:12PM 36.1183 -120.9994 309° West 451 519 39,900 -1,320 Descending Oakland Center
01:13PM 36.1981 -121.1181 310° West 450 518 37,300 -2,880 Descending Oakland Center
01:14PM 36.2931 -121.2622 309° West 451 519 34,000 -3,000 Descending Oakland Center
01:15PM 36.3708 -121.3819 309° West 448 516 31,200 -2,640 Descending Oakland Center
01:16PM 36.4456 -121.4967 309° West 432 497 28,600 -2,520 Descending Oakland Center
01:17PM 36.5181 -121.6083 309° West 417 480 26,100 -2,580 Descending Oakland Center
01:18PM 36.5833 -121.7167 307° West 401 461 23,800 -2,520 Descending Northern Cal TRACON
01:19PM 36.6500 -121.8167 310° West 379 436 21,400 -2,400 Descending Northern Cal TRACON
01:20PM 36.7167 -121.9167 310° West 357 411 18,900 -2,160 Descending Northern Cal TRACON
01:21PM 36.7833 -121.9667 329° Northwest 353 406 17,100 -2,100 Descending Northern Cal TRACON
01:22PM 36.8833 -122.0000 345° North 357 411 14,900 -1,980 Descending Northern Cal TRACON
01:23PM 36.9833 -122.0333 345° North 324 373 13,000 -960 Descending Northern Cal TRACON
01:24PM 37.0667 -122.0500 351° North 272 313 13,000 -1,020 Level Northern Cal TRACON
01:25PM 37.1333 -122.0667 349° North 286 329 11,000 -1,500 Descending Northern Cal TRACON
01:26PM 37.2167 -122.0833 351° North 257 296 10,000 -1,200 Descending Northern Cal TRACON
01:27PM 37.2667 -122.1333 321° Northwest 229 264 8,600 -1,320 Descending Northern Cal TRACON
01:28PM 37.3167 -122.1333 360° North 253 291 7,400 -1,440 Descending Northern Cal TRACON
01:29PM 37.3833 -122.1000 22° Northeast 254 292 5,900 -1,320 Descending Northern Cal TRACON
01:30PM 37.4500 -122.0833 11° North 236 272 5,000 -900 Descending Northern Cal TRACON
01:31PM 37.5000 -122.1000 345° North 193 222 4,100 -900 Descending Northern Cal TRACON
01:32PM 37.5333 -122.1500 310° West 183 211 3,200 -780 Descending Northern Cal TRACON
01:33PM 37.5500 -122.2167 288° West 166 191 2,600 -720 Descending Northern Cal TRACON
01:34PM 37.5667 -122.2500 302° West 156 180 1,800 -840 Descending Northern Cal TRACON
01:34PM 37.5817 -122.2842 299° West 164 189 1,400 -840 Descending Oakland Center
01:35PM 37.6025 -122.3311 299° West 159 183 600 -600 Descending Oakland Center
01:36PM 37.6192 -122.3714 298° West 154 177 300 -300 Descending Oakland Center
01:38PM 37.6167 -122.3667 322° Northwest  Level FlightAware Approximate
01:45PM 37.6191 -122.3752 322° Northwest  Level Estimated